createdAt,value
2018-05-10T00:01:46.864Z,48.70
2018-05-10T00:04:14.444Z,49.24
2018-05-10T00:06:42.115Z,50.47
2018-05-10T00:09:09.524Z,50.14
2018-05-10T00:11:36.916Z,50.00
2018-05-10T00:14:04.311Z,50.58
2018-05-10T00:16:31.923Z,50.65
2018-05-10T00:18:59.536Z,50.91
2018-05-10T00:21:27.223Z,50.77
2018-05-10T00:23:54.808Z,49.52
2018-05-10T00:26:23.144Z,49.73
2018-05-10T00:28:50.847Z,48.51
2018-05-10T00:31:18.425Z,48.48
2018-05-10T00:33:45.864Z,48.14
2018-05-10T00:36:13.588Z,48.24
2018-05-10T00:38:40.937Z,47.90
2018-05-10T00:41:08.319Z,47.71
2018-05-10T00:43:35.705Z,47.61
2018-05-10T00:46:03.086Z,48.66
2018-05-10T00:48:30.475Z,48.76
2018-05-10T00:50:57.855Z,49.34
2018-05-10T00:53:25.245Z,49.02
2018-05-10T00:55:52.645Z,48.57
2018-05-10T00:58:20.047Z,48.86
2018-05-10T01:00:47.416Z,50.42
2018-05-10T01:03:14.797Z,52.31
2018-05-10T01:05:42.196Z,55.54
2018-05-10T01:08:09.574Z,56.48
2018-05-10T01:10:36.959Z,56.25
2018-05-10T01:13:04.339Z,59.81
2018-05-10T01:15:31.734Z,62.83
2018-05-10T01:17:59.113Z,61.94
2018-05-10T01:20:26.499Z,63.37
2018-05-10T01:22:53.888Z,62.17
2018-05-10T01:25:21.272Z,65.00
2018-05-10T01:27:48.656Z,59.67
2018-05-10T01:30:16.047Z,59.04
2018-05-10T01:32:43.962Z,59.06
2018-05-10T01:35:23.046Z,60.51
2018-05-10T01:37:50.410Z,59.11
2018-05-10T01:40:17.784Z,59.20
2018-05-10T01:42:45.167Z,60.21
2018-05-10T01:45:12.559Z,60.05
2018-05-10T01:47:39.941Z,59.60
2018-05-10T01:50:07.317Z,58.81
2018-05-10T01:52:34.708Z,60.00
2018-05-10T01:55:02.084Z,61.07
2018-05-10T01:57:29.468Z,58.63
2018-05-10T01:59:56.838Z,58.43
2018-05-10T02:02:24.219Z,62.17
2018-05-10T02:04:51.613Z,63.86
2018-05-10T02:07:19.013Z,61.39
2018-05-10T02:09:46.403Z,60.06
2018-05-10T02:12:14.592Z,62.41
2018-05-10T02:14:42.083Z,61.26
2018-05-10T02:17:09.489Z,60.15
2018-05-10T02:19:36.983Z,61.05
2018-05-10T02:22:04.368Z,61.48
2018-05-10T02:24:31.964Z,62.35
2018-05-10T02:26:59.412Z,63.89
2018-05-10T02:29:27.104Z,63.55
2018-05-10T02:31:54.494Z,63.22
2018-05-10T02:34:21.963Z,61.20
2018-05-10T02:36:49.340Z,60.62
2018-05-10T02:39:16.732Z,61.50
2018-05-10T02:41:44.290Z,60.94
2018-05-10T02:44:11.722Z,61.94
2018-05-10T02:46:39.152Z,61.63
2018-05-10T02:49:06.527Z,62.42
2018-05-10T02:51:34.002Z,62.96
2018-05-10T02:54:01.371Z,62.96
2018-05-10T02:56:28.752Z,61.75
2018-05-10T02:58:56.136Z,62.07
2018-05-10T03:01:23.506Z,62.33
2018-05-10T03:03:50.892Z,62.14
2018-05-10T03:06:18.378Z,62.24
2018-05-10T03:08:45.974Z,62.70
2018-05-10T03:11:13.335Z,61.68
2018-05-10T03:13:40.774Z,61.95
2018-05-10T03:16:08.142Z,60.96
2018-05-10T03:18:35.524Z,60.07
2018-05-10T03:21:02.971Z,61.51
2018-05-10T03:23:30.352Z,61.24
2018-05-10T03:25:57.727Z,61.34
2018-05-10T03:28:25.109Z,60.73
2018-05-10T03:30:52.479Z,61.93
2018-05-10T03:33:19.903Z,60.83
2018-05-10T03:35:47.251Z,62.40
2018-05-10T03:38:14.945Z,63.02
2018-05-10T03:40:42.570Z,61.43
2018-05-10T03:43:10.169Z,62.26
2018-05-10T03:45:37.551Z,62.84
2018-05-10T03:48:04.952Z,60.67
2018-05-10T03:50:32.333Z,63.16
2018-05-10T03:52:59.749Z,63.06
2018-05-10T03:55:27.127Z,62.29
2018-05-10T03:57:54.511Z,61.21
2018-05-10T04:00:21.914Z,62.88
2018-05-10T04:06:11.861Z,61.60
2018-05-10T04:08:50.943Z,62.11
2018-05-10T04:11:28.487Z,61.95
2018-05-10T04:13:55.876Z,61.79
2018-05-10T04:16:23.267Z,61.74
2018-05-10T04:18:51.433Z,62.30
2018-05-10T04:21:18.815Z,62.43
2018-05-10T04:23:46.187Z,62.15
2018-05-10T04:26:13.566Z,61.61
2018-05-10T04:28:40.951Z,62.75
2018-05-10T04:31:08.629Z,62.81
2018-05-10T04:33:36.010Z,61.27
2018-05-10T04:36:03.399Z,61.28
2018-05-10T04:38:31.215Z,61.27
2018-05-10T04:40:58.612Z,63.05
2018-05-10T04:43:25.990Z,61.86
2018-05-10T04:45:53.367Z,60.40
2018-05-10T04:48:20.760Z,60.01
2018-05-10T04:50:48.127Z,60.63
2018-05-10T04:53:15.544Z,59.60
2018-05-10T04:55:42.913Z,59.73
2018-05-10T04:58:10.331Z,61.06
2018-05-10T05:00:37.715Z,62.74
2018-05-10T05:03:05.110Z,62.81
2018-05-10T05:05:32.484Z,61.37
2018-05-10T05:07:59.901Z,62.63
2018-05-10T05:10:27.272Z,63.58
2018-05-10T05:12:54.670Z,64.28
2018-05-10T05:15:22.954Z,61.60
2018-05-10T05:17:50.340Z,61.69
2018-05-10T05:20:17.736Z,61.91
2018-05-10T05:22:45.199Z,63.43
2018-05-10T05:25:12.579Z,65.20
2018-05-10T05:27:39.976Z,64.82
2018-05-10T05:30:07.406Z,67.30
2018-05-10T05:32:34.778Z,69.21
2018-05-10T05:35:02.288Z,68.52
2018-05-10T05:37:29.705Z,71.86
2018-05-10T05:39:57.107Z,71.01
2018-05-10T05:42:24.493Z,71.32
2018-05-10T05:44:51.879Z,69.98
2018-05-10T05:47:19.278Z,72.21
2018-05-10T05:49:46.670Z,74.91
2018-05-10T05:52:14.062Z,71.43
2018-05-10T05:54:41.461Z,71.60
2018-05-10T05:57:08.854Z,72.86
2018-05-10T05:59:36.230Z,69.77
2018-05-10T06:02:03.623Z,71.88
2018-05-10T06:04:31.018Z,72.24
2018-05-10T06:06:58.412Z,70.42
2018-05-10T06:09:25.807Z,68.54
2018-05-10T06:11:53.203Z,71.43
2018-05-10T06:14:20.599Z,74.78
2018-05-10T06:16:47.987Z,78.35
2018-05-10T06:19:16.798Z,76.20
2018-05-10T06:21:44.189Z,73.67
2018-05-10T06:24:11.574Z,75.09
2018-05-10T06:26:38.955Z,71.84
2018-05-10T06:29:06.393Z,73.62
2018-05-10T06:31:33.913Z,71.22
2018-05-10T06:34:01.318Z,70.59
2018-05-10T06:36:28.689Z,70.29
2018-05-10T06:38:56.085Z,73.56
2018-05-10T06:41:23.519Z,74.19
2018-05-10T06:43:50.855Z,78.55
2018-05-10T06:46:18.232Z,78.28
2018-05-10T06:48:45.662Z,78.71
2018-05-10T06:51:13.042Z,78.41
2018-05-10T06:53:40.485Z,79.26
2018-05-10T06:56:07.921Z,80.46
2018-05-10T06:58:35.402Z,78.75
2018-05-10T07:01:02.775Z,78.86
2018-05-10T07:03:30.244Z,79.21
2018-05-10T07:05:57.643Z,77.33
2018-05-10T07:08:25.028Z,76.74
2018-05-10T07:10:52.432Z,78.96
2018-05-10T07:13:19.814Z,77.62
2018-05-10T07:15:47.252Z,78.85
2018-05-10T07:18:14.635Z,78.49
2018-05-10T07:20:42.045Z,78.60
2018-05-10T07:23:09.667Z,78.63
2018-05-10T07:25:37.085Z,75.86
2018-05-10T07:28:04.465Z,77.91
2018-05-10T07:30:31.846Z,77.33
2018-05-10T07:32:59.293Z,76.61
2018-05-10T07:35:26.693Z,78.96
2018-05-10T07:37:54.062Z,76.70
2018-05-10T07:40:21.486Z,74.46
2018-05-10T07:42:48.867Z,75.71
2018-05-10T07:45:16.255Z,76.55
2018-05-10T07:47:43.654Z,75.67
2018-05-10T07:50:11.047Z,74.50
2018-05-10T07:52:38.444Z,74.40
2018-05-10T07:55:05.843Z,75.05
2018-05-10T07:57:33.496Z,75.30
2018-05-10T08:00:00.896Z,74.60
2018-05-10T08:02:28.284Z,73.78
2018-05-10T08:04:55.696Z,74.39
2018-05-10T08:07:23.081Z,73.19
2018-05-10T08:09:50.475Z,72.53
2018-05-10T08:12:17.853Z,71.96
2018-05-10T08:14:46.128Z,71.10
2018-05-10T08:17:13.524Z,71.94
2018-05-10T08:19:40.918Z,71.58
2018-05-10T08:22:08.303Z,71.37
2018-05-10T08:24:35.708Z,71.30
2018-05-10T08:27:03.109Z,72.38
2018-05-10T08:29:30.538Z,71.99
2018-05-10T08:31:57.908Z,71.88
2018-05-10T08:34:25.308Z,71.40
2018-05-10T08:36:52.707Z,71.78
2018-05-10T08:39:20.125Z,71.46
2018-05-10T08:41:47.509Z,71.28
2018-05-10T08:44:14.931Z,69.93
2018-05-10T08:46:42.323Z,69.71
2018-05-10T08:49:09.727Z,69.39
2018-05-10T08:51:37.157Z,69.33
2018-05-10T08:54:04.508Z,69.53
2018-05-10T08:56:32.039Z,68.46
2018-05-10T08:58:59.417Z,68.62
2018-05-10T09:01:26.862Z,68.91
2018-05-10T09:03:54.279Z,67.18
2018-05-10T09:06:21.679Z,66.74
2018-05-10T09:08:49.076Z,67.77
2018-05-10T09:11:16.503Z,68.13
2018-05-10T09:13:43.886Z,67.50
2018-05-10T09:16:11.290Z,66.83
2018-05-10T09:18:38.674Z,66.72
2018-05-10T09:21:06.065Z,67.50
2018-05-10T09:23:33.452Z,66.26
2018-05-10T09:26:00.868Z,64.84
2018-05-10T09:28:28.236Z,64.90
2018-05-10T09:30:55.655Z,65.42
2018-05-10T09:33:23.037Z,64.48
2018-05-10T09:35:50.433Z,65.46
2018-05-10T09:38:17.827Z,64.97
2018-05-10T09:40:45.860Z,64.72
2018-05-10T09:43:13.240Z,66.41
2018-05-10T09:45:40.637Z,66.05
2018-05-10T09:48:08.019Z,65.55
2018-05-10T09:50:35.557Z,65.27
2018-05-10T09:53:02.930Z,65.35
2018-05-10T09:55:30.449Z,64.28
2018-05-10T09:57:57.848Z,63.49
2018-05-10T10:00:30.242Z,63.28
2018-05-10T10:02:57.638Z,63.29
2018-05-10T10:05:25.024Z,62.34
2018-05-10T10:07:52.707Z,62.74
2018-05-10T10:10:20.111Z,62.46
2018-05-10T10:12:47.485Z,62.41
2018-05-10T10:15:14.890Z,61.86
2018-05-10T10:17:42.374Z,62.44
2018-05-10T10:20:09.678Z,61.83
2018-05-10T10:22:37.065Z,61.22
2018-05-10T10:25:04.459Z,60.60
2018-05-10T10:27:32.067Z,60.12
2018-05-10T10:29:59.489Z,60.56
2018-05-10T10:32:27.120Z,59.25
2018-05-10T10:34:54.465Z,59.84
2018-05-10T10:37:21.857Z,59.89
2018-05-10T10:39:49.247Z,60.30
2018-05-10T10:42:16.804Z,61.16
2018-05-10T10:44:44.269Z,60.94
2018-05-10T10:47:11.669Z,59.69
2018-05-10T10:49:39.104Z,58.84
2018-05-10T10:52:06.521Z,58.52
2018-05-10T10:54:33.928Z,57.83
2018-05-10T10:57:01.311Z,58.72
2018-05-10T10:59:28.887Z,59.04
2018-05-10T11:01:56.330Z,58.17
2018-05-10T11:04:23.683Z,57.46
2018-05-10T11:06:51.105Z,57.31
2018-05-10T11:09:18.650Z,56.36
2018-05-10T11:11:47.246Z,55.96
2018-05-10T11:14:14.681Z,56.59
2018-05-10T11:16:42.123Z,55.87
2018-05-10T11:19:09.532Z,55.97
2018-05-10T11:21:36.940Z,55.89
2018-05-10T11:24:04.339Z,57.08
2018-05-10T11:26:31.740Z,56.75
2018-05-10T11:28:59.159Z,55.97
2018-05-10T11:31:26.630Z,55.93
2018-05-10T11:33:54.041Z,56.10
2018-05-10T11:36:21.432Z,57.26
2018-05-10T11:38:48.826Z,56.78
2018-05-10T11:41:17.133Z,56.80
2018-05-10T11:43:44.553Z,57.08
2018-05-10T11:46:11.942Z,58.32
2018-05-10T11:48:39.408Z,58.58
2018-05-10T11:51:06.778Z,58.61
2018-05-10T11:53:34.164Z,58.23
2018-05-10T11:56:01.556Z,58.22
2018-05-10T11:58:28.951Z,58.26
2018-05-10T12:00:56.351Z,59.72
2018-05-10T12:03:23.741Z,60.11
2018-05-10T12:05:52.896Z,60.25
2018-05-10T12:08:20.278Z,61.99
2018-05-10T12:10:47.685Z,60.88
2018-05-10T12:13:15.094Z,60.60
2018-05-10T12:15:42.476Z,59.89
2018-05-10T12:18:09.871Z,59.25
2018-05-10T12:20:37.264Z,59.96
2018-05-10T12:23:04.653Z,60.03
2018-05-10T12:25:32.116Z,58.94
2018-05-10T12:27:59.437Z,59.71
2018-05-10T12:30:26.909Z,59.49
2018-05-10T12:32:54.224Z,59.39
2018-05-10T12:35:21.611Z,60.63
2018-05-10T12:37:49.051Z,59.76
2018-05-10T12:40:17.396Z,59.36
2018-05-10T12:42:44.791Z,58.54
2018-05-10T12:45:12.176Z,58.45
2018-05-10T12:47:39.563Z,58.44
2018-05-10T12:50:06.966Z,57.74
2018-05-10T12:52:34.359Z,57.43
2018-05-10T12:55:01.759Z,57.62
2018-05-10T12:57:29.336Z,57.12
2018-05-10T12:59:56.800Z,57.83
2018-05-10T13:02:24.251Z,58.13
2018-05-10T13:04:51.680Z,58.51
2018-05-10T13:07:19.585Z,58.55
2018-05-10T13:09:47.672Z,57.58
2018-05-10T13:12:15.116Z,58.22
2018-05-10T13:14:42.514Z,56.91
2018-05-10T13:17:09.911Z,56.82
2018-05-10T13:19:37.299Z,56.51
2018-05-10T13:22:04.700Z,56.89
2018-05-10T13:24:32.389Z,57.03
2018-05-10T13:26:59.773Z,56.99
2018-05-10T13:29:27.190Z,56.37
2018-05-10T13:31:54.556Z,55.83
2018-05-10T13:34:22.139Z,54.87
2018-05-10T13:36:49.533Z,54.00
2018-05-10T13:39:17.719Z,53.40
2018-05-10T13:41:45.143Z,52.84
2018-05-10T13:44:12.592Z,52.55
2018-05-10T13:46:40.254Z,53.63
2018-05-10T13:49:07.608Z,53.16
2018-05-10T13:51:34.994Z,53.87
2018-05-10T13:54:02.387Z,54.41
2018-05-10T13:56:29.777Z,54.60
2018-05-10T13:58:57.319Z,53.79
2018-05-10T14:01:24.693Z,53.59
2018-05-10T14:03:52.086Z,55.01
2018-05-10T14:06:19.471Z,55.58
2018-05-10T14:08:47.802Z,54.92
2018-05-10T14:11:15.204Z,56.05
2018-05-10T14:13:42.898Z,55.46
2018-05-10T14:16:10.390Z,54.82
2018-05-10T14:18:37.794Z,56.60
2018-05-10T14:21:05.184Z,56.42
2018-05-10T14:23:32.588Z,57.47
2018-05-10T14:26:00.972Z,57.59
2018-05-10T14:28:28.380Z,57.92
2018-05-10T14:30:55.793Z,59.12
2018-05-10T14:33:23.201Z,58.10
2018-05-10T14:35:50.610Z,58.12
2018-05-10T14:38:18.000Z,56.16
2018-05-10T14:40:45.383Z,52.11
2018-05-10T14:43:12.784Z,51.98
2018-05-10T14:45:40.309Z,51.64
2018-05-10T14:48:07.720Z,51.66
2018-05-10T14:50:35.140Z,52.43
2018-05-10T14:53:02.519Z,51.58
2018-05-10T14:55:29.916Z,51.76
2018-05-10T14:57:57.290Z,51.31
2018-05-10T15:00:24.680Z,51.35
2018-05-10T15:02:52.259Z,51.87
2018-05-10T15:05:19.696Z,51.65
2018-05-10T15:07:48.144Z,51.51
2018-05-10T15:10:15.635Z,51.59
2018-05-10T15:12:43.032Z,51.82
2018-05-10T15:15:10.441Z,51.99
2018-05-10T15:17:37.827Z,51.91
2018-05-10T15:20:05.212Z,52.45
2018-05-10T15:22:32.605Z,52.37
2018-05-10T15:24:59.990Z,52.04
2018-05-10T15:27:28.571Z,51.96
2018-05-10T15:29:56.068Z,51.75
2018-05-10T15:32:23.472Z,52.03
2018-05-10T15:34:50.956Z,51.63
2018-05-10T15:37:18.919Z,52.20
2018-05-10T15:39:46.314Z,53.57
2018-05-10T15:42:13.707Z,52.10
2018-05-10T15:44:41.078Z,53.39
2018-05-10T15:47:08.463Z,54.02
2018-05-10T15:49:35.854Z,53.68
2018-05-10T15:52:03.266Z,53.93
2018-05-10T15:54:30.645Z,54.98
2018-05-10T15:56:58.062Z,54.80
2018-05-10T15:59:25.563Z,54.41
2018-05-10T16:01:52.820Z,54.09
2018-05-10T16:04:20.212Z,55.05
2018-05-10T16:06:48.385Z,55.14
2018-05-10T16:09:15.782Z,55.21
2018-05-10T16:11:43.201Z,56.65
2018-05-10T16:14:10.604Z,55.67
2018-05-10T16:16:37.980Z,55.66
2018-05-10T16:19:05.378Z,55.57
2018-05-10T16:21:32.914Z,55.23
2018-05-10T16:24:00.483Z,55.79
2018-05-10T16:26:27.914Z,56.00
2018-05-10T16:28:55.506Z,56.18
2018-05-10T16:31:22.936Z,56.41
2018-05-10T16:33:50.761Z,57.00
2018-05-10T16:36:19.881Z,57.00
2018-05-10T16:38:47.336Z,56.86
2018-05-10T16:41:14.813Z,56.81
2018-05-10T16:43:42.224Z,57.35
2018-05-10T16:46:09.817Z,56.70
2018-05-10T16:48:37.206Z,56.61
2018-05-10T16:51:04.599Z,57.24
2018-05-10T16:53:32.002Z,57.61
2018-05-10T16:55:59.492Z,56.96
2018-05-10T16:58:26.907Z,57.23
2018-05-10T17:00:54.330Z,56.91
2018-05-10T17:03:21.734Z,56.85
2018-05-10T17:05:49.124Z,57.02
2018-05-10T17:08:16.541Z,56.66
2018-05-10T17:10:43.935Z,56.56
2018-05-10T17:13:11.332Z,56.47
2018-05-10T17:15:38.724Z,56.29
2018-05-10T17:18:06.115Z,56.61
2018-05-10T17:20:33.508Z,56.79
2018-05-10T17:23:01.168Z,57.36
2018-05-10T17:25:28.579Z,57.90
2018-05-10T17:27:55.965Z,58.89
2018-05-10T17:30:23.362Z,58.06
2018-05-10T17:32:50.789Z,57.58
2018-05-10T17:35:18.874Z,58.43
2018-05-10T17:37:46.267Z,58.75
2018-05-10T17:40:13.647Z,59.33
2018-05-10T17:42:41.056Z,58.96
2018-05-10T17:45:08.439Z,58.99
2018-05-10T17:47:35.835Z,58.66
2018-05-10T17:50:03.211Z,58.60
2018-05-10T17:52:30.615Z,59.58
2018-05-10T17:54:58.008Z,59.68
2018-05-10T17:57:25.707Z,59.91
2018-05-10T17:59:53.097Z,59.28
2018-05-10T18:02:20.474Z,59.07
2018-05-10T18:04:47.886Z,59.35
2018-05-10T18:07:15.309Z,59.22
2018-05-10T18:09:42.652Z,58.96
2018-05-10T18:12:10.047Z,58.70
2018-05-10T18:14:37.438Z,59.35
2018-05-10T18:17:05.035Z,59.88
2018-05-10T18:19:32.431Z,59.94
2018-05-10T18:21:59.827Z,60.63
2018-05-10T18:24:27.228Z,60.92
2018-05-10T18:26:54.708Z,60.62
2018-05-10T18:29:22.031Z,60.81
2018-05-10T18:31:49.423Z,60.29
2018-05-10T18:34:16.825Z,60.31
2018-05-10T18:36:44.216Z,59.67
2018-05-10T18:39:11.616Z,59.97
2018-05-10T18:41:39.014Z,59.69
2018-05-10T18:44:06.438Z,59.81
2018-05-10T18:46:34.080Z,59.66
2018-05-10T18:49:01.635Z,59.77
2018-05-10T18:51:29.023Z,59.77
2018-05-10T18:53:56.453Z,59.87
2018-05-10T18:56:23.825Z,60.38
2018-05-10T18:58:51.554Z,60.99
2018-05-10T19:01:20.206Z,60.45
2018-05-10T19:03:47.616Z,61.12
2018-05-10T19:06:16.439Z,60.59
2018-05-10T19:08:43.819Z,60.59
2018-05-10T19:11:11.207Z,61.47
2018-05-10T19:13:38.601Z,61.26
2018-05-10T19:16:05.975Z,61.45
2018-05-10T19:18:33.374Z,61.94
2018-05-10T19:21:00.824Z,61.82
2018-05-10T19:23:28.163Z,62.09
2018-05-10T19:25:55.559Z,61.68
2018-05-10T19:28:22.967Z,61.76
2018-05-10T19:30:50.359Z,62.45
2018-05-10T19:33:17.759Z,62.64
2018-05-10T19:35:45.175Z,61.99
2018-05-10T19:38:12.583Z,62.00
2018-05-10T19:40:40.006Z,62.44
2018-05-10T19:43:07.405Z,62.10
2018-05-10T19:45:34.800Z,62.21
2018-05-10T19:48:02.198Z,63.04
2018-05-10T19:50:29.597Z,63.03
2018-05-10T19:52:56.988Z,63.36
2018-05-10T19:55:26.836Z,63.19
2018-05-10T19:57:54.207Z,63.04
2018-05-10T20:00:21.629Z,62.93
2018-05-10T20:02:49.564Z,62.50
2018-05-10T20:05:17.013Z,62.79
2018-05-10T20:07:44.391Z,63.33
2018-05-10T20:10:11.779Z,63.59
2018-05-10T20:12:39.171Z,63.09
2018-05-10T20:15:06.607Z,63.46
2018-05-10T20:17:33.998Z,63.42
2018-05-10T20:20:01.389Z,64.04
2018-05-10T20:22:28.765Z,64.34
2018-05-10T20:24:56.156Z,64.70
2018-05-10T20:27:23.534Z,64.10
2018-05-10T20:29:50.960Z,64.40
2018-05-10T20:32:18.554Z,64.96
2018-05-10T20:34:46.842Z,64.74
2018-05-10T20:37:14.203Z,65.32
2018-05-10T20:39:41.595Z,65.54
2018-05-10T20:42:08.974Z,64.97
2018-05-10T20:44:36.439Z,64.79
2018-05-10T20:47:03.751Z,65.21
2018-05-10T20:49:31.157Z,65.45
2018-05-10T20:51:58.762Z,65.46
2018-05-10T20:54:26.422Z,64.61
2018-05-10T20:56:54.179Z,66.04
2018-05-10T20:59:21.594Z,66.21
2018-05-10T21:01:50.124Z,66.42
2018-05-10T21:04:17.583Z,66.18
2018-05-10T21:06:45.118Z,65.92
2018-05-10T21:09:12.526Z,66.38
2018-05-10T21:11:39.973Z,65.88
2018-05-10T21:14:07.407Z,66.29
2018-05-10T21:16:34.861Z,66.02
2018-05-10T21:19:02.230Z,66.02
2018-05-10T21:21:29.646Z,66.43
2018-05-10T21:23:58.093Z,66.37
2018-05-10T21:26:25.500Z,66.83
2018-05-10T21:28:52.884Z,66.39
2018-05-10T21:31:20.260Z,66.27
2018-05-10T21:33:48.163Z,66.50
2018-05-10T21:36:15.507Z,66.30
2018-05-10T21:38:42.883Z,65.52
2018-05-10T21:41:10.285Z,66.14
2018-05-10T21:43:37.669Z,66.00
2018-05-10T21:46:05.071Z,66.27
2018-05-10T21:48:33.078Z,66.34
2018-05-10T21:51:00.480Z,66.36
2018-05-10T21:53:27.880Z,66.00
2018-05-10T21:55:55.280Z,66.47
2018-05-10T21:58:22.692Z,66.71
2018-05-10T22:00:50.102Z,66.50
2018-05-10T22:03:17.499Z,66.57
2018-05-10T22:05:44.887Z,66.84
2018-05-10T22:08:12.280Z,66.93
2018-05-10T22:10:39.684Z,66.69
2018-05-10T22:13:07.075Z,66.94
2018-05-10T22:15:34.476Z,67.27
2018-05-10T22:18:01.946Z,67.12
2018-05-10T22:20:29.264Z,66.74
2018-05-10T22:22:56.644Z,66.64
2018-05-10T22:25:24.050Z,66.63
2018-05-10T22:27:51.442Z,67.30
2018-05-10T22:30:18.918Z,67.34
2018-05-10T22:32:46.324Z,67.30
2018-05-10T22:35:13.716Z,66.81
2018-05-10T22:37:41.097Z,66.76
2018-05-10T22:40:08.501Z,67.61
2018-05-10T22:42:35.887Z,67.97
2018-05-10T22:45:03.284Z,67.81
2018-05-10T22:47:30.679Z,67.87
2018-05-10T22:49:58.070Z,67.73
2018-05-10T22:52:25.465Z,67.91
2018-05-10T22:54:52.851Z,67.78
2018-05-10T22:57:20.384Z,68.52
2018-05-10T22:59:47.863Z,68.36
2018-05-10T23:02:15.213Z,68.38
2018-05-10T23:04:42.618Z,68.40
2018-05-10T23:07:10.004Z,68.54
2018-05-10T23:09:37.415Z,69.07
2018-05-10T23:12:04.902Z,69.59
2018-05-10T23:14:32.388Z,69.17
2018-05-10T23:16:59.779Z,69.36
2018-05-10T23:19:27.184Z,69.37
2018-05-10T23:21:54.585Z,69.91
2018-05-10T23:24:21.989Z,70.45
2018-05-10T23:26:49.395Z,70.58
2018-05-10T23:29:16.783Z,70.84
2018-05-10T23:31:44.177Z,70.96
2018-05-10T23:34:11.564Z,71.14
2018-05-10T23:36:38.959Z,71.47
2018-05-10T23:39:06.353Z,72.35
2018-05-10T23:41:33.737Z,72.39
2018-05-10T23:44:01.155Z,72.27
2018-05-10T23:46:28.568Z,71.99
2018-05-10T23:48:55.956Z,72.54
2018-05-10T23:51:23.358Z,71.93
2018-05-10T23:53:50.751Z,72.17
2018-05-10T23:56:18.144Z,72.28
2018-05-10T23:58:45.543Z,73.11
